createdAt,value
2019-01-04T00:00:41.317Z,4.50
2019-01-04T00:03:09.621Z,5.63
2019-01-04T00:05:38.264Z,5.63
2019-01-04T00:08:06.230Z,8.33
2019-01-04T00:10:34.567Z,5.10
2019-01-04T00:13:02.704Z,4.87
2019-01-04T00:15:30.775Z,7.07
2019-01-04T00:17:58.802Z,5.50
2019-01-04T00:20:26.896Z,5.47
2019-01-04T00:22:54.952Z,7.53
2019-01-04T00:25:23.052Z,5.70
2019-01-04T00:27:51.009Z,8.90
2019-01-04T00:30:19.049Z,10.63
2019-01-04T00:32:47.051Z,9.27
2019-01-04T00:35:14.932Z,7.90
2019-01-04T00:37:42.900Z,7.90
2019-01-04T00:40:11.076Z,8.63
2019-01-04T00:42:38.924Z,6.73
2019-01-04T00:45:07.591Z,8.17
2019-01-04T00:47:35.603Z,7.30
2019-01-04T00:50:04.748Z,6.67
2019-01-04T00:52:32.891Z,7.67
2019-01-04T00:55:16.940Z,7.50
2019-01-04T00:58:26.198Z,9.10
2019-01-04T01:01:46.019Z,6.33
2019-01-04T01:04:55.667Z,6.90
2019-01-04T01:08:17.078Z,5.57
2019-01-04T01:11:30.426Z,5.47
2019-01-04T01:14:38.215Z,5.80
2019-01-04T01:17:59.703Z,5.50
2019-01-04T01:21:21.392Z,5.00
2019-01-04T01:24:39.643Z,4.73
2019-01-04T01:28:02.176Z,7.97
2019-01-04T01:31:05.988Z,5.50
2019-01-04T01:34:05.644Z,5.07
2019-01-04T01:37:09.375Z,5.07
2019-01-04T01:40:18.158Z,6.33
2019-01-04T01:43:24.153Z,4.30
2019-01-04T01:46:35.923Z,4.73
2019-01-04T01:49:39.582Z,5.23
2019-01-04T01:52:15.490Z,4.53
2019-01-04T01:54:43.431Z,4.70
2019-01-04T01:57:11.352Z,4.47
2019-01-04T01:59:39.336Z,5.33
2019-01-04T02:02:07.255Z,3.73
2019-01-04T02:04:35.206Z,4.67
2019-01-04T02:07:03.247Z,5.50
2019-01-04T02:09:31.678Z,4.57
2019-01-04T02:11:59.555Z,4.37
2019-01-04T02:14:27.519Z,3.90
2019-01-04T02:16:55.751Z,3.83
2019-01-04T02:19:23.814Z,3.60
2019-01-04T02:21:51.867Z,4.53
2019-01-04T02:24:20.079Z,4.07
2019-01-04T02:26:48.395Z,3.07
2019-01-04T02:29:16.243Z,3.83
2019-01-04T02:31:44.138Z,3.93
2019-01-04T02:34:12.142Z,3.13
2019-01-04T02:36:40.074Z,3.53
2019-01-04T02:39:08.081Z,4.30
2019-01-04T02:41:36.110Z,3.23
2019-01-04T02:44:04.165Z,2.63
2019-01-04T02:46:32.606Z,3.43
2019-01-04T02:49:00.905Z,2.07
2019-01-04T02:51:29.365Z,2.90
2019-01-04T02:53:57.496Z,2.83
2019-01-04T02:56:25.343Z,2.60
2019-01-04T02:58:53.240Z,2.43
2019-01-04T03:01:40.544Z,3.90
2019-01-04T03:04:08.986Z,1.93
2019-01-04T03:06:36.939Z,2.43
2019-01-04T03:09:06.291Z,2.77
2019-01-04T03:11:34.198Z,2.53
2019-01-04T03:14:02.215Z,1.90
2019-01-04T03:16:30.203Z,2.20
2019-01-04T03:18:58.163Z,3.27
2019-01-04T03:21:26.115Z,2.37
2019-01-04T03:23:54.052Z,2.83
2019-01-04T03:26:21.983Z,3.23
2019-01-04T03:28:49.989Z,2.47
2019-01-04T03:31:17.937Z,3.23
2019-01-04T03:33:45.835Z,3.80
2019-01-04T03:36:13.627Z,4.10
2019-01-04T03:38:41.601Z,3.43
2019-01-04T03:41:09.616Z,2.10
2019-01-04T03:43:37.531Z,2.27
2019-01-04T03:46:05.759Z,2.40
2019-01-04T03:48:33.679Z,2.23
2019-01-04T03:51:01.676Z,2.70
2019-01-04T03:53:29.732Z,3.03
2019-01-04T03:55:57.882Z,2.47
2019-01-04T03:58:26.021Z,2.47
2019-01-04T04:00:54.293Z,3.00
2019-01-04T04:03:22.969Z,3.30
2019-01-04T04:05:51.331Z,2.50
2019-01-04T04:08:19.379Z,2.37
2019-01-04T04:10:47.697Z,3.13
2019-01-04T04:13:15.714Z,5.50
2019-01-04T04:15:43.681Z,4.77
2019-01-04T04:18:11.640Z,4.00
2019-01-04T04:20:40.057Z,3.20
2019-01-04T04:23:08.022Z,3.00
2019-01-04T04:25:36.363Z,4.23
2019-01-04T04:28:04.384Z,3.80
2019-01-04T04:30:32.258Z,3.77
2019-01-04T04:33:00.288Z,5.13
2019-01-04T04:35:28.155Z,5.23
2019-01-04T04:37:56.067Z,4.00
2019-01-04T04:40:24.584Z,3.80
2019-01-04T04:42:52.500Z,6.23
2019-01-04T04:45:20.632Z,5.20
2019-01-04T04:47:48.633Z,6.70
2019-01-04T04:50:16.536Z,5.90
2019-01-04T04:52:44.476Z,9.23
2019-01-04T04:55:12.278Z,5.60
2019-01-04T04:57:40.242Z,5.83
2019-01-04T05:00:08.589Z,5.63
2019-01-04T05:02:36.440Z,6.23
2019-01-04T05:05:04.839Z,7.53
2019-01-04T05:07:32.752Z,4.87
2019-01-04T05:10:00.670Z,4.93
2019-01-04T05:12:28.909Z,4.47
2019-01-04T05:14:56.700Z,5.03
2019-01-04T05:17:25.144Z,6.00
2019-01-04T05:19:53.059Z,5.50
2019-01-04T05:22:21.067Z,5.03
2019-01-04T05:24:48.951Z,6.47
2019-01-04T05:27:17.237Z,8.73
2019-01-04T05:29:45.250Z,6.63
2019-01-04T05:32:13.435Z,5.47
2019-01-04T05:34:41.327Z,6.63
2019-01-04T05:37:09.220Z,6.97
2019-01-04T05:39:37.463Z,4.10
2019-01-04T05:42:05.444Z,4.60
2019-01-04T05:44:33.526Z,5.53
2019-01-04T05:47:01.376Z,4.33
2019-01-04T05:49:29.303Z,5.37
2019-01-04T05:51:57.321Z,5.20
2019-01-04T05:54:25.307Z,3.73
2019-01-04T05:56:53.255Z,4.07
2019-01-04T05:59:21.193Z,5.40
2019-01-04T06:01:49.070Z,5.57
2019-01-04T06:04:17.056Z,6.80
2019-01-04T06:06:45.051Z,8.73
2019-01-04T06:09:13.011Z,8.07
2019-01-04T06:11:41.084Z,9.23
2019-01-04T06:14:09.235Z,8.83
2019-01-04T06:16:37.223Z,9.20
2019-01-04T06:19:05.095Z,10.13
2019-01-04T06:21:33.058Z,6.63
2019-01-04T06:24:00.983Z,9.03
2019-01-04T06:26:28.874Z,8.90
2019-01-04T06:28:56.898Z,8.50
2019-01-04T06:31:24.767Z,9.87
2019-01-04T06:33:52.751Z,10.87
2019-01-04T06:36:21.157Z,11.30
2019-01-04T06:38:49.376Z,9.63
2019-01-04T06:41:17.383Z,11.87
2019-01-04T06:43:45.215Z,12.40
2019-01-04T06:46:13.091Z,10.63
2019-01-04T06:48:40.974Z,12.20
2019-01-04T06:51:08.963Z,10.77
2019-01-04T06:53:37.328Z,14.37
2019-01-04T06:56:06.544Z,19.43
2019-01-04T06:58:34.498Z,21.03
2019-01-04T07:01:02.823Z,18.93
2019-01-04T07:03:30.795Z,17.47
2019-01-04T07:05:59.352Z,17.73
2019-01-04T07:08:27.198Z,14.03
2019-01-04T07:10:55.028Z,17.27
2019-01-04T07:13:23.054Z,15.13
2019-01-04T07:15:51.287Z,13.43
2019-01-04T07:18:19.302Z,17.33
2019-01-04T07:20:47.420Z,61.73
2019-01-04T07:23:15.366Z,119.60
2019-01-04T07:25:43.218Z,161.30
2019-01-04T07:28:11.160Z,59.77
2019-01-04T07:30:39.528Z,37.50
2019-01-04T07:33:07.479Z,31.43
2019-01-04T07:35:35.451Z,42.80
2019-01-04T07:38:03.460Z,63.73
2019-01-04T07:40:31.308Z,65.00
2019-01-04T07:42:59.299Z,37.70
2019-01-04T07:45:27.375Z,33.77
2019-01-04T07:47:55.941Z,36.97
2019-01-04T07:50:24.167Z,42.43
2019-01-04T07:52:52.259Z,35.80
2019-01-04T07:55:20.450Z,29.53
2019-01-04T07:57:48.418Z,20.33
2019-01-04T08:00:16.667Z,22.40
2019-01-04T08:02:45.954Z,23.53
2019-01-04T08:05:16.482Z,35.53
2019-01-04T08:07:44.404Z,37.47
2019-01-04T08:10:12.714Z,42.83
2019-01-04T08:12:41.451Z,49.87
2019-01-04T08:15:09.912Z,39.80
2019-01-04T08:17:38.114Z,34.20
2019-01-04T08:20:06.463Z,29.53
2019-01-04T08:22:34.467Z,32.43
2019-01-04T08:25:02.706Z,40.60
2019-01-04T08:27:30.592Z,34.50
2019-01-04T08:29:58.646Z,40.70
2019-01-04T08:32:26.938Z,41.50
2019-01-04T08:34:55.417Z,34.53
2019-01-04T08:37:24.134Z,26.60
2019-01-04T08:39:52.119Z,26.30
2019-01-04T08:42:20.089Z,34.20
2019-01-04T08:44:48.092Z,36.77
2019-01-04T08:47:16.471Z,34.17
2019-01-04T08:49:44.646Z,30.13
2019-01-04T08:52:12.600Z,29.10
2019-01-04T08:54:40.496Z,25.23
2019-01-04T08:57:08.695Z,30.50
2019-01-04T08:59:36.651Z,23.90
2019-01-04T09:02:04.711Z,21.03
2019-01-04T09:04:33.775Z,21.80
2019-01-04T09:07:01.901Z,18.10
2019-01-04T09:09:29.966Z,15.53
2019-01-04T09:11:57.951Z,13.00
2019-01-04T09:14:29.120Z,14.53
2019-01-04T09:16:56.988Z,17.73
2019-01-04T09:19:25.055Z,17.07
2019-01-04T09:21:52.985Z,15.07
2019-01-04T09:24:20.883Z,23.83
2019-01-04T09:26:48.844Z,25.70
2019-01-04T09:29:16.696Z,26.27
2019-01-04T09:31:44.746Z,22.07
2019-01-04T09:34:12.666Z,21.00
2019-01-04T09:36:40.748Z,24.73
2019-01-04T09:39:08.837Z,22.67
2019-01-04T09:41:49.914Z,20.97
2019-01-04T09:44:17.835Z,20.60
2019-01-04T09:46:45.807Z,20.60
2019-01-04T09:49:13.702Z,21.53
2019-01-04T09:51:41.921Z,22.17
2019-01-04T09:54:10.272Z,21.70
2019-01-04T09:56:38.351Z,22.03
2019-01-04T09:59:06.300Z,19.30
2019-01-04T10:01:34.342Z,21.07
2019-01-04T10:04:02.344Z,22.33
2019-01-04T10:06:30.286Z,22.93
2019-01-04T10:08:58.238Z,18.47
2019-01-04T10:11:28.678Z,12.93
2019-01-04T10:13:56.523Z,8.80
2019-01-04T10:16:24.518Z,6.80
2019-01-04T10:18:52.816Z,7.70
2019-01-04T10:21:20.851Z,7.73
2019-01-04T10:23:48.766Z,8.13
2019-01-04T10:26:16.658Z,8.70
2019-01-04T10:28:49.649Z,9.03
2019-01-04T10:31:17.589Z,10.50
2019-01-04T10:33:45.583Z,11.73
2019-01-04T10:36:13.735Z,10.80
2019-01-04T10:38:41.634Z,11.87
2019-01-04T10:41:09.519Z,10.17
2019-01-04T10:43:37.475Z,13.90
2019-01-04T10:46:05.350Z,13.93
2019-01-04T10:48:33.443Z,10.73
2019-01-04T10:51:01.501Z,10.53
2019-01-04T10:53:29.504Z,9.23
2019-01-04T10:55:57.429Z,9.03
2019-01-04T10:58:25.321Z,7.87
2019-01-04T11:00:53.338Z,8.53
2019-01-04T11:03:21.246Z,7.63
2019-01-04T11:05:49.280Z,8.10
2019-01-04T11:08:17.326Z,7.10
2019-01-04T11:10:45.272Z,7.73
2019-01-04T11:13:13.187Z,8.60
2019-01-04T11:15:41.461Z,7.23
2019-01-04T11:18:09.991Z,6.13
2019-01-04T11:20:40.302Z,7.00
2019-01-04T11:23:21.254Z,6.37
2019-01-04T11:26:05.739Z,5.43
2019-01-04T11:28:43.585Z,5.17
2019-01-04T11:31:24.685Z,6.10
2019-01-04T11:34:06.609Z,6.30
2019-01-04T11:36:51.989Z,6.07
2019-01-04T11:40:10.178Z,5.67
2019-01-04T11:42:59.879Z,7.27
2019-01-04T11:46:06.804Z,6.47
2019-01-04T11:49:01.313Z,7.27
2019-01-04T11:52:00.391Z,5.43
2019-01-04T11:54:29.543Z,4.43
2019-01-04T11:56:57.475Z,6.10
2019-01-04T11:59:25.360Z,4.47
2019-01-04T12:01:53.242Z,5.17
2019-01-04T12:04:21.366Z,6.63
2019-01-04T12:06:49.392Z,5.50
2019-01-04T12:09:17.470Z,6.03
2019-01-04T12:11:45.484Z,5.93
2019-01-04T12:14:13.336Z,7.50
2019-01-04T12:16:41.395Z,6.10
2019-01-04T12:19:09.278Z,5.10
2019-01-04T12:21:37.137Z,4.67
2019-01-04T12:24:05.075Z,6.57
2019-01-04T12:26:32.960Z,6.20
2019-01-04T12:29:00.937Z,5.50
2019-01-04T12:31:29.071Z,6.00
2019-01-04T12:33:57.207Z,4.83
2019-01-04T12:36:25.131Z,5.60
2019-01-04T12:38:53.092Z,5.60
2019-01-04T12:41:20.967Z,4.40
2019-01-04T12:43:48.853Z,4.33
2019-01-04T12:46:16.769Z,5.97
2019-01-04T12:48:44.603Z,6.43
2019-01-04T12:51:12.523Z,5.30
2019-01-04T12:53:40.404Z,3.80
2019-01-04T12:56:08.258Z,4.83
2019-01-04T12:58:36.179Z,3.10
2019-01-04T13:01:04.283Z,3.10
2019-01-04T13:03:32.321Z,4.97
2019-01-04T13:06:00.377Z,3.83
2019-01-04T13:08:28.712Z,3.57
2019-01-04T13:10:56.932Z,2.77
2019-01-04T13:13:24.823Z,3.20
2019-01-04T13:15:55.321Z,3.37
2019-01-04T13:18:23.294Z,2.93
2019-01-04T13:20:51.256Z,3.87
2019-01-04T13:23:19.337Z,5.67
2019-01-04T13:25:47.316Z,4.43
2019-01-04T13:28:15.178Z,4.00
2019-01-04T13:30:43.205Z,3.50
2019-01-04T13:33:11.086Z,3.60
2019-01-04T13:35:39.652Z,7.07
2019-01-04T13:38:07.780Z,5.03
2019-01-04T13:40:35.766Z,4.30
2019-01-04T13:43:03.847Z,4.37
2019-01-04T13:45:31.872Z,4.53
2019-01-04T13:48:00.112Z,4.70
2019-01-04T13:50:28.331Z,5.27
2019-01-04T13:52:56.338Z,4.80
2019-01-04T13:55:24.489Z,3.47
2019-01-04T13:57:52.320Z,6.17
2019-01-04T14:00:20.345Z,5.20
2019-01-04T14:02:48.212Z,4.63
2019-01-04T14:05:16.192Z,4.20
2019-01-04T14:07:44.282Z,5.27
2019-01-04T14:10:12.329Z,3.80
2019-01-04T14:12:40.291Z,3.47
2019-01-04T14:15:41.811Z,6.00
2019-01-04T14:18:09.683Z,4.00
2019-01-04T14:20:37.990Z,4.53
2019-01-04T14:23:05.899Z,3.30
2019-01-04T14:25:33.903Z,4.10
2019-01-04T14:28:01.843Z,4.03
2019-01-04T14:30:30.951Z,3.27
2019-01-04T14:32:58.929Z,4.93
2019-01-04T14:35:27.306Z,9.10
2019-01-04T14:37:55.328Z,13.53
2019-01-04T14:40:23.486Z,14.73
2019-01-04T14:42:51.615Z,15.33
2019-01-04T14:45:19.892Z,11.20
2019-01-04T14:47:47.792Z,10.13
2019-01-04T14:50:15.731Z,12.50
2019-01-04T14:52:43.649Z,15.70
2019-01-04T14:55:11.679Z,17.60
2019-01-04T14:57:39.613Z,16.20
2019-01-04T15:00:10.189Z,16.23
2019-01-04T15:02:38.104Z,11.70
2019-01-04T15:05:07.052Z,9.83
2019-01-04T15:07:35.162Z,17.57
2019-01-04T15:10:03.391Z,23.23
2019-01-04T15:12:31.333Z,21.67
2019-01-04T15:15:15.797Z,28.33
2019-01-04T15:17:43.809Z,27.37
2019-01-04T15:20:11.842Z,28.87
2019-01-04T15:22:39.800Z,38.43
2019-01-04T15:25:07.787Z,40.83
2019-01-04T15:27:35.766Z,35.50
2019-01-04T15:30:04.635Z,43.57
2019-01-04T15:32:32.511Z,47.87
2019-01-04T15:35:00.532Z,40.73
2019-01-04T15:37:28.443Z,39.03
2019-01-04T15:39:56.371Z,44.17
2019-01-04T15:42:24.388Z,52.73
2019-01-04T15:44:52.321Z,43.70
2019-01-04T15:47:20.227Z,30.60
2019-01-04T15:49:48.155Z,28.90
2019-01-04T15:52:16.068Z,21.63
2019-01-04T15:54:43.983Z,26.67
2019-01-04T15:57:11.847Z,27.57
2019-01-04T15:59:39.751Z,27.07
2019-01-04T16:02:07.818Z,43.40
2019-01-04T16:04:35.775Z,50.03
2019-01-04T16:07:03.857Z,41.67
2019-01-04T16:09:31.847Z,37.93
2019-01-04T16:11:59.815Z,36.23
2019-01-04T16:14:48.120Z,23.90
2019-01-04T16:17:16.194Z,26.27
2019-01-04T16:19:44.116Z,28.50
2019-01-04T16:22:12.134Z,23.93
2019-01-04T16:24:40.139Z,26.47
2019-01-04T16:27:08.102Z,22.67
2019-01-04T16:29:36.060Z,25.73
2019-01-04T16:32:04.052Z,27.97
2019-01-04T16:34:31.824Z,23.47
2019-01-04T16:36:59.888Z,17.53
2019-01-04T16:39:27.839Z,17.50
2019-01-04T16:41:55.765Z,17.70
2019-01-04T16:44:23.880Z,19.33
2019-01-04T16:46:51.963Z,17.53
2019-01-04T16:49:20.004Z,16.20
2019-01-04T16:51:47.983Z,20.53
2019-01-04T16:54:15.926Z,22.93
2019-01-04T16:56:43.899Z,17.97
2019-01-04T16:59:11.850Z,16.27
2019-01-04T17:01:39.859Z,17.83
2019-01-04T17:04:07.862Z,16.20
2019-01-04T17:06:35.823Z,15.27
2019-01-04T17:09:07.796Z,19.70
2019-01-04T17:11:35.767Z,23.50
2019-01-04T17:14:03.858Z,24.47
2019-01-04T17:16:40.762Z,23.30
2019-01-04T17:19:08.675Z,25.20
2019-01-04T17:21:36.679Z,18.27
2019-01-04T17:24:04.653Z,22.13
2019-01-04T17:26:32.531Z,24.87
2019-01-04T17:29:00.405Z,32.37
2019-01-04T17:31:28.393Z,28.97
2019-01-04T17:33:56.359Z,25.53
2019-01-04T17:36:24.347Z,24.37
2019-01-04T17:38:52.388Z,24.53
2019-01-04T17:41:20.459Z,22.17
2019-01-04T17:43:48.713Z,21.20
2019-01-04T17:46:16.645Z,27.00
2019-01-04T17:48:44.555Z,28.53
2019-01-04T17:51:12.567Z,21.53
2019-01-04T17:53:40.660Z,17.23
2019-01-04T17:56:08.815Z,23.67
2019-01-04T17:58:36.796Z,23.97
2019-01-04T18:01:05.343Z,26.47
2019-01-04T18:03:33.244Z,26.20
2019-01-04T18:06:01.115Z,34.07
2019-01-04T18:08:29.100Z,43.70
2019-01-04T18:10:57.047Z,44.00
2019-01-04T18:13:24.945Z,38.37
2019-01-04T18:16:25.355Z,43.60
2019-01-04T18:18:52.578Z,39.60
2019-01-04T18:21:20.413Z,39.17
2019-01-04T18:23:48.489Z,38.50
2019-01-04T18:26:16.490Z,37.10
2019-01-04T18:28:44.496Z,34.50
2019-01-04T18:31:12.505Z,31.80
2019-01-04T18:33:40.436Z,32.60
2019-01-04T18:36:08.371Z,27.43
2019-01-04T18:38:36.287Z,27.50
2019-01-04T18:41:04.200Z,26.20
2019-01-04T18:43:32.133Z,23.60
2019-01-04T18:46:00.075Z,18.87
2019-01-04T18:48:27.880Z,19.50
2019-01-04T18:50:55.856Z,22.27
2019-01-04T18:53:23.998Z,31.20
2019-01-04T18:55:51.949Z,33.73
2019-01-04T18:58:20.092Z,34.43
2019-01-04T19:00:47.983Z,27.57
2019-01-04T19:03:15.867Z,26.17
2019-01-04T19:05:43.787Z,28.27
2019-01-04T19:08:11.737Z,31.30
2019-01-04T19:10:40.410Z,35.10
2019-01-04T19:13:08.506Z,55.57
2019-01-04T19:16:03.602Z,62.17
2019-01-04T19:18:30.959Z,55.87
2019-01-04T19:20:59.043Z,45.60
2019-01-04T19:23:26.943Z,40.40
2019-01-04T19:25:54.900Z,30.90
2019-01-04T19:28:22.838Z,28.23
2019-01-04T19:30:50.746Z,23.30
2019-01-04T19:33:18.753Z,21.40
2019-01-04T19:35:46.767Z,17.87
2019-01-04T19:38:14.642Z,20.37
2019-01-04T19:40:42.822Z,20.00
2019-01-04T19:43:10.704Z,28.40
2019-01-04T19:45:39.691Z,44.60
2019-01-04T19:48:07.630Z,50.63
2019-01-04T19:50:35.682Z,60.23
2019-01-04T19:53:03.715Z,41.83
2019-01-04T19:55:31.663Z,27.77
2019-01-04T19:57:59.581Z,22.87
2019-01-04T20:00:28.083Z,20.37
2019-01-04T20:02:56.061Z,18.67
2019-01-04T20:05:44.661Z,16.63
2019-01-04T20:08:49.517Z,15.50
2019-01-04T20:12:35.179Z,13.13
2019-01-04T20:16:09.777Z,12.43
2019-01-04T20:18:55.976Z,12.27
2019-01-04T20:21:41.788Z,14.13
2019-01-04T20:24:37.895Z,13.13
2019-01-04T20:27:34.406Z,14.33
2019-01-04T20:30:19.843Z,13.80
2019-01-04T20:33:16.255Z,15.90
2019-01-04T20:36:02.229Z,15.37
2019-01-04T20:38:48.258Z,15.37
2019-01-04T20:41:38.524Z,15.13
2019-01-04T20:44:32.476Z,13.13
2019-01-04T20:47:22.455Z,19.77
2019-01-04T20:50:08.367Z,16.27
2019-01-04T20:52:49.805Z,17.93
2019-01-04T20:55:43.070Z,17.10
2019-01-04T20:58:28.976Z,19.90
2019-01-04T21:01:18.928Z,23.43
2019-01-04T21:04:12.091Z,30.90
2019-01-04T21:06:59.539Z,28.20
2019-01-04T21:09:53.096Z,19.10
2019-01-04T21:12:42.144Z,17.97
2019-01-04T21:15:27.391Z,21.33
2019-01-04T21:18:29.902Z,23.73
2019-01-04T21:21:23.019Z,21.37
2019-01-04T21:24:06.815Z,18.97
2019-01-04T21:27:14.237Z,17.93
2019-01-04T21:29:51.771Z,16.20
2019-01-04T21:32:45.061Z,16.67
2019-01-04T21:35:30.987Z,16.97
2019-01-04T21:38:30.296Z,18.67
2019-01-04T21:41:20.203Z,19.13
2019-01-04T21:44:02.950Z,18.97
2019-01-04T21:47:08.118Z,16.53
2019-01-04T21:50:07.054Z,15.67
2019-01-04T21:52:52.847Z,18.70
2019-01-04T21:55:39.610Z,21.27
2019-01-04T21:58:26.951Z,21.27
2019-01-04T22:01:13.083Z,19.67
2019-01-04T22:04:06.388Z,24.00
2019-01-04T22:06:52.315Z,31.90
2019-01-04T22:09:51.703Z,32.97
2019-01-04T22:12:39.095Z,23.00
2019-01-04T22:15:55.782Z,21.00
2019-01-04T22:18:57.248Z,19.17
2019-01-04T22:21:47.446Z,20.53
2019-01-04T22:24:50.014Z,19.63
2019-01-04T22:27:46.131Z,20.20
2019-01-04T22:30:39.917Z,17.73
2019-01-04T22:33:36.867Z,19.27
2019-01-04T22:36:23.015Z,17.57
2019-01-04T22:39:08.939Z,19.67
2019-01-04T22:41:54.626Z,24.67
2019-01-04T22:44:40.640Z,20.70
2019-01-04T22:47:26.222Z,18.90
2019-01-04T22:50:21.065Z,17.70
2019-01-04T22:53:06.718Z,13.13
2019-01-04T22:55:52.860Z,15.07
2019-01-04T22:58:39.249Z,16.77
2019-01-04T23:01:27.070Z,14.43
2019-01-04T23:04:26.694Z,18.17
2019-01-04T23:07:12.219Z,15.73
2019-01-04T23:09:57.710Z,14.73
2019-01-04T23:12:43.446Z,17.23
2019-01-04T23:15:36.755Z,14.47
2019-01-04T23:18:30.007Z,14.93
2019-01-04T23:21:52.950Z,15.70
2019-01-04T23:24:40.447Z,14.67
2019-01-04T23:27:30.647Z,15.53
2019-01-04T23:30:28.166Z,16.80
2019-01-04T23:33:20.797Z,16.80
2019-01-04T23:36:23.247Z,14.57
2019-01-04T23:39:09.126Z,14.27
2019-01-04T23:41:42.295Z,13.93
2019-01-04T23:44:30.120Z,12.53
2019-01-04T23:47:15.779Z,10.50
2019-01-04T23:49:57.359Z,11.93
2019-01-04T23:52:53.242Z,13.13
2019-01-04T23:55:46.503Z,12.87
2019-01-04T23:58:39.698Z,12.53
